Time,TemperatureF,DewpointF,PressureIn,WindDirection,WindDirectionDegrees,WindSpeedMPH,WindSpeedGustMPH,Humidity,HourlyPrecipIn,Conditions,Clouds,dailyrainin,SoftwareType,DateUTC
2017-03-28 00:00:00,44.5,37.7,30.22,North,0,0.0,0.0,77,0.00,,,0.00,WUHU216HW,2017-03-28 07:00:00,
2017-03-28 00:05:00,44.6,37.9,30.22,North,0,0.0,0.0,77,0.00,,,0.00,WUHU216HW,2017-03-28 07:05:00,
2017-03-28 00:29:00,44.1,37.4,30.21,North,0,0.0,0.0,77,0.00,,,0.00,WUHU216HW,2017-03-28 07:29:00,
2017-03-28 00:30:00,44.1,37.4,30.21,North,0,0.0,0.0,77,0.00,,,0.00,WUHU216HW,2017-03-28 07:30:00,
2017-03-28 00:35:00,44.1,37.4,30.21,North,0,0.0,0.0,77,0.00,,,0.00,WUHU216HW,2017-03-28 07:35:00,
2017-03-28 01:00:00,43.6,36.2,30.21,North,0,0.0,0.0,75,0.00,,,0.00,WUHU216HW,2017-03-28 08:00:00,
2017-03-28 01:05:00,43.6,36.2,30.21,North,0,0.0,0.0,75,0.00,,,0.00,WUHU216HW,2017-03-28 08:05:00,
2017-03-28 01:29:00,42.8,35.8,30.20,North,0,0.0,0.0,76,0.00,,,0.00,WUHU216HW,2017-03-28 08:29:00,
2017-03-28 01:30:00,42.8,35.8,30.20,North,0,0.0,0.0,76,0.00,,,0.00,WUHU216HW,2017-03-28 08:30:00,
2017-03-28 01:35:00,42.8,35.8,30.20,North,0,0.0,0.0,76,0.00,,,0.00,WUHU216HW,2017-03-28 08:35:00,
2017-03-28 02:00:00,42.8,35.1,30.20,North,0,0.0,0.0,74,0.00,,,0.00,WUHU216HW,2017-03-28 09:00:00,
2017-03-28 02:05:00,42.8,35.1,30.20,North,0,0.0,0.0,74,0.00,,,0.00,WUHU216HW,2017-03-28 09:05:00,
2017-03-28 02:30:00,42.7,34.9,30.19,North,0,0.0,0.0,74,0.00,,,0.00,WUHU216HW,2017-03-28 09:30:00,
2017-03-28 02:31:00,42.7,34.9,30.19,North,0,0.0,0.0,74,0.00,,,0.00,WUHU216HW,2017-03-28 09:31:00,
2017-03-28 02:36:00,42.7,34.9,30.19,North,0,0.0,0.0,74,0.00,,,0.00,WUHU216HW,2017-03-28 09:36:00,
2017-03-28 03:00:00,42.7,35.3,30.19,North,0,0.0,0.0,75,0.00,,,0.00,WUHU216HW,2017-03-28 10:00:00,
2017-03-28 03:05:00,42.7,35.3,30.19,North,0,0.0,0.0,75,0.00,,,0.00,WUHU216HW,2017-03-28 10:05:00,
2017-03-28 03:30:00,43.2,35.2,30.18,North,0,0.0,0.0,73,0.00,,,0.00,WUHU216HW,2017-03-28 10:30:00,
2017-03-28 03:31:00,43.2,35.2,30.18,North,0,0.0,0.0,73,0.00,,,0.00,WUHU216HW,2017-03-28 10:31:00,
2017-03-28 03:36:00,43.2,35.2,30.18,North,0,0.0,0.0,73,0.00,,,0.00,WUHU216HW,2017-03-28 10:36:00,
2017-03-28 04:00:00,42.8,35.1,30.18,North,0,0.0,0.0,74,0.00,,,0.00,WUHU216HW,2017-03-28 11:00:00,
2017-03-28 04:01:00,42.8,35.1,30.18,North,0,0.0,0.0,74,0.00,,,0.00,WUHU216HW,2017-03-28 11:01:00,
2017-03-28 04:06:00,42.8,35.1,30.18,North,0,0.0,0.0,74,0.00,,,0.00,WUHU216HW,2017-03-28 11:06:00,
2017-03-28 04:31:00,42.8,34.2,30.17,North,0,0.0,0.0,71,0.00,,,0.00,WUHU216HW,2017-03-28 11:31:00,
2017-03-28 04:36:00,42.8,34.2,30.17,North,0,0.0,0.0,71,0.00,,,0.00,WUHU216HW,2017-03-28 11:36:00,
2017-03-28 04:59:00,42.1,33.8,30.16,North,0,0.0,0.0,72,0.00,,,0.00,WUHU216HW,2017-03-28 11:59:00,
2017-03-28 05:00:00,42.1,33.8,30.16,North,0,0.0,0.0,72,0.00,,,0.00,WUHU216HW,2017-03-28 12:00:00,
2017-03-28 05:05:00,42.1,33.8,30.16,North,0,0.0,0.0,72,0.00,,,0.00,WUHU216HW,2017-03-28 12:05:00,
2017-03-28 05:29:00,42.1,32.3,30.16,North,0,0.0,0.0,68,0.00,,,0.00,WUHU216HW,2017-03-28 12:29:00,
2017-03-28 05:30:00,42.1,32.3,30.16,North,0,0.0,0.0,68,0.00,,,0.00,WUHU216HW,2017-03-28 12:30:00,
2017-03-28 05:35:00,42.1,32.3,30.16,North,0,0.0,0.0,68,0.00,,,0.00,WUHU216HW,2017-03-28 12:35:00,
2017-03-28 06:00:00,41.4,32.8,30.20,North,0,0.0,0.0,71,0.00,,,0.00,WUHU216HW,2017-03-28 13:00:00,
2017-03-28 06:05:00,41.4,32.8,30.20,North,0,0.0,0.0,71,0.00,,,0.00,WUHU216HW,2017-03-28 13:05:00,
2017-03-28 06:29:00,40.9,32.2,30.20,North,0,0.0,0.0,71,0.00,,,0.00,WUHU216HW,2017-03-28 13:29:00,
2017-03-28 06:30:00,40.9,32.2,30.20,North,0,0.0,0.0,71,0.00,,,0.00,WUHU216HW,2017-03-28 13:30:00,
2017-03-28 06:35:00,40.9,32.2,30.20,North,0,0.0,0.0,71,0.00,,,0.00,WUHU216HW,2017-03-28 13:35:00,
2017-03-28 07:00:00,40.9,32.2,30.22,North,0,0.0,0.0,71,0.00,,,0.00,WUHU216HW,2017-03-28 14:00:00,
2017-03-28 07:05:00,40.9,32.2,30.22,North,0,0.0,0.0,71,0.00,,,0.00,WUHU216HW,2017-03-28 14:05:00,
2017-03-28 07:30:00,42.5,33.5,30.21,North,0,0.0,0.0,70,0.00,,,0.00,WUHU216HW,2017-03-28 14:30:00,
2017-03-28 07:35:00,42.5,33.5,30.21,North,0,0.0,0.0,70,0.00,,,0.00,WUHU216HW,2017-03-28 14:35:00,
2017-03-28 07:36:00,42.5,33.5,30.21,North,0,0.0,0.0,70,0.00,,,0.00,WUHU216HW,2017-03-28 14:36:00,
2017-03-28 08:00:00,46.3,35.5,30.20,North,0,0.0,0.0,66,0.00,,,0.00,WUHU216HW,2017-03-28 15:00:00,
2017-03-28 08:05:00,46.3,35.5,30.20,North,0,0.0,0.0,66,0.00,,,0.00,WUHU216HW,2017-03-28 15:05:00,
2017-03-28 08:29:00,50.0,31.2,30.19,North,0,0.0,0.0,48,0.00,,,0.00,WUHU216HW,2017-03-28 15:29:00,
2017-03-28 08:30:00,50.0,31.2,30.19,North,0,0.0,0.0,48,0.00,,,0.00,WUHU216HW,2017-03-28 15:30:00,
2017-03-28 08:35:00,50.0,31.2,30.19,North,0,0.0,0.0,48,0.00,,,0.00,WUHU216HW,2017-03-28 15:35:00,
2017-03-28 09:00:00,54.0,36.3,30.19,North,0,0.0,0.0,51,0.00,,,0.00,WUHU216HW,2017-03-28 16:00:00,
2017-03-28 09:05:00,54.0,36.3,30.19,North,0,0.0,0.0,51,0.00,,,0.00,WUHU216HW,2017-03-28 16:05:00,
2017-03-28 09:29:00,57.8,37.1,30.19,North,0,0.0,0.0,46,0.00,,,0.00,WUHU216HW,2017-03-28 16:29:00,
2017-03-28 09:30:00,57.8,37.1,30.19,North,0,0.0,0.0,46,0.00,,,0.00,WUHU216HW,2017-03-28 16:30:00,
2017-03-28 09:35:00,57.8,37.1,30.19,North,0,0.0,0.0,46,0.00,,,0.00,WUHU216HW,2017-03-28 16:35:00,
2017-03-28 09:36:00,57.8,37.1,30.19,North,0,0.0,0.0,46,0.00,,,0.00,WUHU216HW,2017-03-28 16:36:00,
2017-03-28 10:00:00,62.6,36.5,30.19,North,0,0.0,0.0,38,0.00,,,0.00,WUHU216HW,2017-03-28 17:00:00,
2017-03-28 10:05:00,62.6,36.5,30.19,North,0,0.0,0.0,38,0.00,,,0.00,WUHU216HW,2017-03-28 17:05:00,
2017-03-28 10:30:00,64.8,35.7,30.20,North,0,0.0,0.0,34,0.00,,,0.00,WUHU216HW,2017-03-28 17:30:00,
2017-03-28 10:31:00,64.8,35.7,30.20,North,0,0.0,0.0,34,0.00,,,0.00,WUHU216HW,2017-03-28 17:31:00,
2017-03-28 10:36:00,64.8,35.7,30.20,North,0,0.0,0.0,34,0.00,,,0.00,WUHU216HW,2017-03-28 17:36:00,
2017-03-28 11:00:00,65.2,38.1,30.20,North,0,0.0,0.0,37,0.00,,,0.00,WUHU216HW,2017-03-28 18:00:00,
2017-03-28 11:05:00,65.3,39.0,30.20,North,0,0.0,0.0,38,0.00,,,0.00,WUHU216HW,2017-03-28 18:05:00,
2017-03-28 11:30:00,65.5,34.8,30.20,North,0,0.0,0.0,32,0.00,,,0.00,WUHU216HW,2017-03-28 18:30:00,
2017-03-28 11:31:00,65.5,34.8,30.20,North,0,0.0,0.0,32,0.00,,,0.00,WUHU216HW,2017-03-28 18:31:00,
2017-03-28 11:36:00,65.5,34.8,30.20,North,0,0.0,0.0,32,0.00,,,0.00,WUHU216HW,2017-03-28 18:36:00,
2017-03-28 12:00:00,66.4,37.1,30.21,North,0,0.0,0.0,34,0.00,,,0.00,WUHU216HW,2017-03-28 19:00:00,
2017-03-28 12:01:00,66.4,37.1,30.21,North,0,0.0,0.0,34,0.00,,,0.00,WUHU216HW,2017-03-28 19:01:00,
2017-03-28 12:06:00,66.4,37.1,30.21,North,0,0.0,0.0,34,0.00,,,0.00,WUHU216HW,2017-03-28 19:06:00,
2017-03-28 12:31:00,67.5,38.7,30.22,North,0,0.0,0.0,35,0.00,,,0.00,WUHU216HW,2017-03-28 19:31:00,
2017-03-28 12:36:00,67.5,38.7,30.22,North,0,0.0,0.0,35,0.00,,,0.00,WUHU216HW,2017-03-28 19:36:00,
2017-03-28 13:00:00,68.6,41.9,30.23,North,0,0.0,0.0,38,0.00,,,0.00,WUHU216HW,2017-03-28 20:00:00,
2017-03-28 13:05:00,68.6,41.9,30.23,North,0,0.0,0.0,38,0.00,,,0.00,WUHU216HW,2017-03-28 20:05:00,
2017-03-28 13:29:00,68.4,41.7,30.24,North,0,0.0,0.0,38,0.00,,,0.00,WUHU216HW,2017-03-28 20:29:00,
2017-03-28 13:30:00,68.4,41.7,30.24,North,0,0.0,0.0,38,0.00,,,0.00,WUHU216HW,2017-03-28 20:30:00,
2017-03-28 13:35:00,68.4,41.7,30.24,North,0,0.0,0.0,38,0.00,,,0.00,WUHU216HW,2017-03-28 20:35:00,
2017-03-28 14:00:00,67.3,42.8,30.24,North,0,0.0,0.0,41,0.00,,,0.00,WUHU216HW,2017-03-28 21:00:00,
2017-03-28 14:05:00,67.3,42.8,30.24,North,0,0.0,0.0,41,0.00,,,0.00,WUHU216HW,2017-03-28 21:05:00,
2017-03-28 14:30:00,67.3,42.8,30.23,North,0,0.0,0.0,41,0.00,,,0.00,WUHU216HW,2017-03-28 21:30:00,
2017-03-28 14:35:00,67.3,42.8,30.23,North,0,0.0,0.0,41,0.00,,,0.00,WUHU216HW,2017-03-28 21:35:00,
2017-03-28 15:00:00,67.0,42.5,30.23,North,0,0.0,0.0,41,0.00,,,0.00,WUHU216HW,2017-03-28 22:00:00,
2017-03-28 15:05:00,67.0,42.5,30.23,North,0,0.0,0.0,41,0.00,,,0.00,WUHU216HW,2017-03-28 22:05:00,
2017-03-28 15:29:00,67.3,43.4,30.21,North,0,0.0,0.0,42,0.00,,,0.00,WUHU216HW,2017-03-28 22:29:00,
2017-03-28 15:30:00,67.3,43.4,30.21,North,0,0.0,0.0,42,0.00,,,0.00,WUHU216HW,2017-03-28 22:30:00,
2017-03-28 15:35:00,67.3,43.4,30.21,North,0,0.0,0.0,42,0.00,,,0.00,WUHU216HW,2017-03-28 22:35:00,
2017-03-28 15:36:00,67.3,43.4,30.21,North,0,0.0,0.0,42,0.00,,,0.00,WUHU216HW,2017-03-28 22:36:00,
2017-03-28 16:00:00,67.3,42.8,30.21,North,0,0.0,0.0,41,0.00,,,0.00,WUHU216HW,2017-03-28 23:00:00,
2017-03-28 16:05:00,67.3,42.8,30.21,North,0,0.0,0.0,41,0.00,,,0.00,WUHU216HW,2017-03-28 23:05:00,
2017-03-28 16:30:00,66.2,42.4,30.20,North,0,0.0,0.0,42,0.00,,,0.00,WUHU216HW,2017-03-28 23:30:00,
2017-03-28 16:35:00,66.2,42.4,30.20,North,0,0.0,0.0,42,0.00,,,0.00,WUHU216HW,2017-03-28 23:35:00,
2017-03-28 17:00:00,65.2,42.6,30.20,North,0,0.0,0.0,44,0.00,,,0.00,WUHU216HW,2017-03-29 00:00:00,
2017-03-28 17:05:00,65.2,42.6,30.20,North,0,0.0,0.0,44,0.00,,,0.00,WUHU216HW,2017-03-29 00:05:00,
2017-03-28 17:29:00,64.8,43.4,30.20,North,0,0.0,0.0,46,0.00,,,0.00,WUHU216HW,2017-03-29 00:29:00,
2017-03-28 17:30:00,64.8,43.4,30.20,North,0,0.0,0.0,46,0.00,,,0.00,WUHU216HW,2017-03-29 00:30:00,
2017-03-28 17:35:00,64.8,43.4,30.20,North,0,0.0,0.0,46,0.00,,,0.00,WUHU216HW,2017-03-29 00:35:00,
2017-03-28 18:00:00,63.0,44.1,30.21,North,0,0.0,0.0,50,0.00,,,0.00,WUHU216HW,2017-03-29 01:00:00,
2017-03-28 18:05:00,63.0,44.1,30.21,North,0,0.0,0.0,50,0.00,,,0.00,WUHU216HW,2017-03-29 01:05:00,
2017-03-28 18:30:00,61.6,44.2,30.21,North,0,0.0,0.0,53,0.00,,,0.00,WUHU216HW,2017-03-29 01:30:00,
2017-03-28 18:31:00,61.6,44.2,30.21,North,0,0.0,0.0,53,0.00,,,0.00,WUHU216HW,2017-03-29 01:31:00,
2017-03-28 18:36:00,61.6,44.2,30.21,North,0,0.0,0.0,53,0.00,,,0.00,WUHU216HW,2017-03-29 01:36:00,
2017-03-28 19:00:00,60.1,44.4,30.21,North,0,0.0,0.0,56,0.00,,,0.00,WUHU216HW,2017-03-29 02:00:00,
2017-03-28 19:01:00,60.1,44.4,30.21,North,0,0.0,0.0,56,0.00,,,0.00,WUHU216HW,2017-03-29 02:01:00,
2017-03-28 19:06:00,60.1,44.4,30.21,North,0,0.0,0.0,56,0.00,,,0.00,WUHU216HW,2017-03-29 02:06:00,
2017-03-28 19:29:00,58.7,43.0,30.21,North,0,0.0,0.0,56,0.00,,,0.00,WUHU216HW,2017-03-29 02:29:00,
2017-03-28 19:31:00,58.7,43.0,30.21,North,0,0.0,0.0,56,0.00,,,0.00,WUHU216HW,2017-03-29 02:31:00,
2017-03-28 19:36:00,58.7,43.0,30.21,North,0,0.0,0.0,56,0.00,,,0.00,WUHU216HW,2017-03-29 02:36:00,
2017-03-28 20:00:00,57.1,42.5,30.21,North,0,0.0,0.0,58,0.00,,,0.00,WUHU216HW,2017-03-29 03:00:00,
2017-03-28 20:01:00,57.1,42.5,30.21,North,0,0.0,0.0,58,0.00,,,0.00,WUHU216HW,2017-03-29 03:01:00,
2017-03-28 20:06:00,57.1,42.5,30.21,North,0,0.0,0.0,58,0.00,,,0.00,WUHU216HW,2017-03-29 03:06:00,
2017-03-28 20:31:00,55.8,42.1,30.22,North,0,0.0,0.0,60,0.00,,,0.00,WUHU216HW,2017-03-29 03:31:00,
2017-03-28 20:36:00,55.8,42.1,30.22,North,0,0.0,0.0,60,0.00,,,0.00,WUHU216HW,2017-03-29 03:36:00,
2017-03-28 21:00:00,55.3,42.4,30.23,North,0,0.0,0.0,62,0.00,,,0.00,WUHU216HW,2017-03-29 04:00:00,
2017-03-28 21:05:00,55.3,42.4,30.23,North,0,0.0,0.0,62,0.00,,,0.00,WUHU216HW,2017-03-29 04:05:00,
2017-03-28 21:30:00,54.4,42.4,30.24,North,0,0.0,0.0,64,0.00,,,0.00,WUHU216HW,2017-03-29 04:30:00,
2017-03-28 21:35:00,54.4,42.4,30.24,North,0,0.0,0.0,64,0.00,,,0.00,WUHU216HW,2017-03-29 04:35:00,
2017-03-28 22:00:00,54.0,42.0,30.25,North,0,0.0,0.0,64,0.00,,,0.00,WUHU216HW,2017-03-29 05:00:00,
2017-03-28 22:05:00,54.0,42.0,30.25,North,0,0.0,0.0,64,0.00,,,0.00,WUHU216HW,2017-03-29 05:05:00,
2017-03-28 22:30:00,53.1,41.2,30.25,North,0,0.0,0.0,64,0.00,,,0.00,WUHU216HW,2017-03-29 05:30:00,
2017-03-28 22:35:00,53.1,41.2,30.25,North,0,0.0,0.0,64,0.00,,,0.00,WUHU216HW,2017-03-29 05:35:00,